Time;durP1;ratioP1;P1;durP2;ratioP2;P2;SDS_P1;SDS_P2;PMS_P1;PMS_P2;Temp;Humidity;BMP_temperature;BMP_pressure;BME280_temperature;BME280_humidity;BME280_pressure;Samples;Min_cycle;Max_cycle;Signal;HPM_P1;HPM_P2
2023/03/02 00:01:44;;;;;;;21.98;9.43;;;;;;;5.73;59.44;101615.94;5105857;28;20046;-59
2023/03/02 00:04:14;;;;;;;21.52;9.88;;;;;;;5.62;59.66;101614.00;5110264;28;20040;-59
2023/03/02 00:06:40;;;;;;;19.55;10.65;;;;;;;5.53;59.83;101608.63;5105751;28;20036;-59
2023/03/02 00:09:06;;;;;;;22.23;10.30;;;;;;;5.48;60.10;101619.81;5095628;28;20054;-59
2023/03/02 00:11:34;;;;;;;18.77;10.15;;;;;;;5.39;60.30;101610.09;5096311;28;20028;-58
2023/03/02 00:13:59;;;;;;;21.10;10.55;;;;;;;5.32;60.11;101603.00;5096075;28;20058;-57
2023/03/02 00:16:25;;;;;;;22.73;9.65;;;;;;;5.30;60.21;101607.31;5090187;28;20666;-57
2023/03/02 00:18:50;;;;;;;19.48;9.65;;;;;;;5.13;60.61;101602.63;5093281;28;20055;-58
2023/03/02 00:21:16;;;;;;;19.77;10.80;;;;;;;5.00;60.91;101605.84;5109287;28;20520;-58
2023/03/02 00:23:42;;;;;;;18.27;9.05;;;;;;;5.06;60.52;101620.72;5105698;28;20553;-58
2023/03/02 00:26:07;;;;;;;19.48;10.45;;;;;;;4.99;61.01;101604.09;5110165;28;20035;-58
2023/03/02 00:28:33;;;;;;;19.38;10.32;;;;;;;4.92;61.19;101610.91;5107881;28;20035;-58
2023/03/02 00:31:02;;;;;;;14.80;8.57;;;;;;;4.91;61.30;101600.47;5098066;28;20038;-58
2023/03/02 00:33:27;;;;;;;15.65;9.07;;;;;;;4.90;61.24;101604.78;5100883;28;20031;-58
2023/03/02 00:35:53;;;;;;;15.18;8.15;;;;;;;4.85;61.16;101611.63;5106544;28;20039;-58
2023/03/02 00:38:18;;;;;;;12.10;7.40;;;;;;;4.82;61.49;101597.66;5101099;28;20054;-58
2023/03/02 00:40:46;;;;;;;11.85;7.32;;;;;;;4.79;61.20;101601.09;5098958;28;20032;-59
2023/03/02 00:43:12;;;;;;;12.63;7.25;;;;;;;4.71;61.22;101587.03;5100642;28;20036;-58
2023/03/02 00:45:37;;;;;;;14.23;7.65;;;;;;;4.60;61.25;101597.19;5094851;28;20046;-58
2023/03/02 00:48:03;;;;;;;11.60;6.57;;;;;;;4.52;61.31;101592.66;5096977;28;20096;-58
2023/03/02 00:50:28;;;;;;;11.90;6.85;;;;;;;4.42;61.74;101594.16;5097804;28;20047;-58
2023/03/02 00:52:54;;;;;;;15.50;8.73;;;;;;;4.41;61.67;101602.81;5111780;28;20071;-58
2023/03/02 00:55:20;;;;;;;17.90;9.43;;;;;;;4.45;61.52;101589.03;5100500;28;20043;-58
2023/03/02 00:57:53;;;;;;;16.48;8.55;;;;;;;4.45;61.54;101586.44;5102226;28;20077;-58
2023/03/02 01:00:22;;;;;;;13.70;7.72;;;;;;;4.44;61.43;101595.97;5111685;28;20594;-58
2023/03/02 01:02:48;;;;;;;15.10;9.13;;;;;;;4.46;61.43;101593.38;5112144;28;20110;-58
2023/03/02 01:05:14;;;;;;;12.13;6.20;;;;;;;4.47;61.43;101592.56;5102428;28;20035;-58
2023/03/02 01:07:39;;;;;;;10.68;6.35;;;;;;;4.40;61.52;101601.94;5099584;28;20039;-58
2023/03/02 01:10:05;;;;;;;14.93;8.43;;;;;;;4.48;61.44;101593.44;5098119;28;20028;-58
2023/03/02 01:12:31;;;;;;;12.45;7.18;;;;;;;4.48;61.34;101596.06;5092140;28;20032;-58
2023/03/02 01:14:57;;;;;;;11.32;6.80;;;;;;;4.46;61.48;101590.78;5100172;28;20557;-58
2023/03/02 01:17:24;;;;;;;16.35;8.10;;;;;;;4.41;61.57;101592.41;5097565;28;20033;-58
2023/03/02 01:19:49;;;;;;;12.25;6.97;;;;;;;4.38;61.52;101585.41;5104399;28;20043;-58
2023/03/02 01:22:15;;;;;;;11.25;7.03;;;;;;;4.43;61.45;101594.22;5112752;28;20036;-58
2023/03/02 01:24:40;;;;;;;12.15;7.47;;;;;;;4.44;61.54;101584.69;5103380;28;20387;-58
2023/03/02 01:27:06;;;;;;;11.60;6.93;;;;;;;4.44;61.55;101582.09;5098227;28;20055;-58
2023/03/02 01:29:31;;;;;;;12.40;7.25;;;;;;;4.40;61.74;101578.53;5098875;28;20062;-59
2023/03/02 01:31:57;;;;;;;11.77;7.35;;;;;;;4.40;61.69;101577.66;5098398;28;20051;-58
2023/03/02 01:34:22;;;;;;;13.82;7.47;;;;;;;4.40;61.71;101572.44;5100190;28;20101;-57
2023/03/02 01:36:48;;;;;;;11.05;6.70;;;;;;;4.43;61.65;101578.59;5094250;28;20040;-57
2023/03/02 01:39:16;;;;;;;9.07;5.82;;;;;;;4.41;61.52;101575.06;5090134;28;20055;-59
2023/03/02 01:41:44;;;;;;;10.75;6.43;;;;;;;4.38;61.53;101566.31;5096811;28;20043;-59
2023/03/02 01:44:36;;;;;;;10.43;6.93;;;;;;;4.34;61.88;101559.28;5096644;28;20047;-59
2023/03/02 01:47:20;;;;;;;15.00;7.93;;;;;;;4.26;62.15;101550.44;5103961;28;20078;-58
2023/03/02 01:49:51;;;;;;;12.10;7.10;;;;;;;4.24;62.10;101552.13;5110407;28;20041;-59
2023/03/02 01:52:18;;;;;;;12.90;7.05;;;;;;;4.25;62.00;101540.88;5109929;28;20538;-59
2023/03/02 01:54:48;;;;;;;14.38;7.55;;;;;;;4.16;62.18;101538.94;5105768;28;20109;-59
2023/03/02 01:57:18;;;;;;;11.50;7.03;;;;;;;4.20;62.19;101543.38;5097520;28;20074;-59
2023/03/02 01:59:44;;;;;;;11.60;6.97;;;;;;;4.15;62.24;101538.06;5098713;28;20036;-58
2023/03/02 02:02:11;;;;;;;10.32;6.38;;;;;;;4.17;62.12;101538.97;5073326;28;20119;-58
2023/03/02 02:04:41;;;;;;;11.68;7.63;;;;;;;4.18;62.27;101534.63;5097051;28;20088;-58
2023/03/02 02:07:08;;;;;;;15.80;8.57;;;;;;;4.15;62.25;101537.19;5103580;28;20123;-58
2023/03/02 02:09:42;;;;;;;14.05;7.82;;;;;;;4.10;62.31;101539.66;5091298;28;20119;-58
2023/03/02 02:12:12;;;;;;;10.93;7.38;;;;;;;4.10;62.26;101542.28;5103147;28;20028;-58
2023/03/02 02:14:38;;;;;;;12.93;6.35;;;;;;;4.08;62.42;101541.38;5094798;28;20085;-57
2023/03/02 02:17:04;;;;;;;10.20;5.72;;;;;;;4.10;62.31;101529.25;5104464;28;20039;-57
2023/03/02 02:19:47;;;;;;;8.50;5.88;;;;;;;4.08;62.36;101528.38;5100019;28;20039;-57
2023/03/02 02:22:16;;;;;;;7.80;5.57;;;;;;;4.00;62.43;101524.72;5109120;28;20454;-57
2023/03/02 02:24:57;;;;;;;8.57;5.28;;;;;;;3.99;62.33;101524.66;5110011;28;20305;-57
2023/03/02 02:27:28;;;;;;;7.55;4.78;;;;;;;3.98;62.33;101538.50;5102979;28;20024;-58
2023/03/02 02:29:57;;;;;;;7.68;4.60;;;;;;;3.95;62.27;101545.41;5109903;28;20043;-58
2023/03/02 02:32:26;;;;;;;8.95;5.03;;;;;;;3.92;62.32;101540.13;5111780;28;20459;-58
2023/03/02 02:35:18;;;;;;;9.52;5.22;;;;;;;3.87;62.59;101533.03;5095582;28;21327;-58
2023/03/02 02:37:51;;;;;;;9.85;5.45;;;;;;;3.85;62.31;101538.22;5089936;28;20040;-58
2023/03/02 02:40:37;;;;;;;9.45;5.75;;;;;;;3.81;62.94;101535.50;5095137;28;20073;-58
2023/03/02 02:43:03;;;;;;;10.30;6.38;;;;;;;3.86;62.34;101539.09;5097194;28;20111;-58
2023/03/02 02:45:29;;;;;;;11.95;6.28;;;;;;;3.82;62.30;101537.25;5097144;28;20554;-58
2023/03/02 02:47:55;;;;;;;9.63;5.60;;;;;;;3.82;62.04;101537.25;5100432;28;20035;-57
2023/03/02 02:50:29;;;;;;;11.90;6.03;;;;;;;3.76;62.45;101534.53;5109167;28;20032;-58
2023/03/02 02:53:01;;;;;;;12.20;6.82;;;;;;;3.79;62.50;101537.19;5103817;28;20055;-57
2023/03/02 02:55:28;;;;;;;14.00;7.75;;;;;;;3.84;62.25;101535.59;5096653;28;20032;-58
2023/03/02 02:57:56;;;;;;;12.40;6.65;;;;;;;3.87;62.39;101535.63;5096999;28;20031;-58
2023/03/02 03:00:22;;;;;;;14.55;7.68;;;;;;;3.84;62.23;101539.06;5106539;28;20055;-58
2023/03/02 03:02:56;;;;;;;13.68;8.55;;;;;;;3.83;62.02;101539.00;5093978;28;20066;-57
2023/03/02 03:05:21;;;;;;;15.73;7.40;;;;;;;3.83;62.09;101539.00;5089383;28;20047;-57
2023/03/02 03:07:47;;;;;;;15.00;8.07;;;;;;;3.82;62.07;101547.66;5097939;28;20391;-58
2023/03/02 03:10:18;;;;;;;9.77;5.97;;;;;;;3.83;61.89;101547.72;5095409;28;20032;-58
2023/03/02 03:12:45;;;;;;;11.65;7.03;;;;;;;3.83;61.73;101544.22;5097434;28;20028;-59
2023/03/02 03:15:11;;;;;;;11.25;6.38;;;;;;;3.69;61.84;101542.16;5096978;28;20464;-58
2023/03/02 03:17:37;;;;;;;10.85;6.30;;;;;;;3.64;61.76;101553.31;5096365;28;20034;-58
2023/03/02 03:20:07;;;;;;;12.38;6.70;;;;;;;3.48;62.47;101545.94;5096069;28;20457;-58
2023/03/02 03:22:35;;;;;;;12.60;6.97;;;;;;;3.44;62.70;101545.00;5103941;28;20028;-58
2023/03/02 03:25:00;;;;;;;13.60;7.38;;;;;;;3.49;62.94;101539.91;5110362;28;20063;-58
2023/03/02 03:27:26;;;;;;;11.43;6.70;;;;;;;3.48;63.02;101541.63;5110389;28;20027;-57
2023/03/02 03:29:51;;;;;;;8.63;5.65;;;;;;;3.56;62.77;101529.72;5099591;28;20463;-58
2023/03/02 03:32:18;;;;;;;9.80;6.00;;;;;;;3.61;62.67;101535.03;5087575;28;20471;-57
2023/03/02 03:34:44;;;;;;;8.48;5.75;;;;;;;3.62;62.48;101537.66;5091218;28;20403;-58
2023/03/02 03:37:13;;;;;;;8.90;5.32;;;;;;;3.61;62.65;101538.50;5100947;28;20043;-58
2023/03/02 03:39:38;;;;;;;9.70;5.50;;;;;;;3.62;62.39;101526.38;5109136;28;20411;-58
2023/03/02 03:42:04;;;;;;;12.00;5.60;;;;;;;3.65;62.43;101527.34;5110451;28;20459;-58
2023/03/02 03:44:29;;;;;;;8.65;5.28;;;;;;;3.58;62.59;101533.22;5100095;28;20564;-57
2023/03/02 03:46:55;;;;;;;10.15;5.53;;;;;;;3.60;62.27;101528.06;5096403;28;20086;-58
2023/03/02 03:49:20;;;;;;;8.80;4.75;;;;;;;3.59;62.67;101527.19;5094501;28;20055;-58
2023/03/02 03:51:46;;;;;;;9.88;6.03;;;;;;;3.49;62.89;101522.59;5101064;28;20372;-58
2023/03/02 03:54:12;;;;;;;8.70;5.78;;;;;;;3.54;62.90;101520.09;5109469;28;20032;-58
2023/03/02 03:56:43;;;;;;;14.82;6.72;;;;;;;3.59;62.50;101524.59;5099707;28;20506;-57
2023/03/02 03:59:12;;;;;;;12.02;5.63;;;;;;;3.59;62.70;101522.00;5092713;28;20429;-58
2023/03/02 04:01:47;;;;;;;13.55;5.80;;;;;;;3.62;62.85;101526.38;5088707;28;20044;-57
2023/03/02 04:04:19;;;;;;;22.63;7.93;;;;;;;3.51;63.13;101525.22;5101031;28;20082;-58
2023/03/02 04:06:45;;;;;;;39.85;8.35;;;;;;;3.54;63.12;101526.19;5108668;28;20054;-58
2023/03/02 04:09:11;;;;;;;33.10;7.60;;;;;;;3.44;63.59;101530.28;5110452;28;20467;-58
2023/03/02 04:11:40;;;;;;;33.22;7.88;;;;;;;3.58;63.34;101528.00;5107897;28;20049;-58
2023/03/02 04:14:07;;;;;;;51.75;7.78;;;;;;;3.48;63.65;101518.25;5114320;28;20028;-58
2023/03/02 04:16:33;;;;;;;57.58;8.85;;;;;;;3.46;63.60;101522.50;5112031;28;20040;-58
2023/03/02 04:18:59;;;;;;;41.00;9.13;;;;;;;3.60;63.02;101520.28;5105012;28;20051;-58
2023/03/02 04:21:25;;;;;;;90.07;10.20;;;;;;;3.31;64.02;101519.50;5113904;28;20036;-58
2023/03/02 04:23:50;;;;;;;61.88;10.10;;;;;;;3.32;64.23;101519.56;5099335;28;20432;-58
2023/03/02 04:26:16;;;;;;;18.05;7.07;;;;;;;3.60;63.12;101510.75;5099560;28;20451;-58
2023/03/02 04:28:41;;;;;;;22.85;8.80;;;;;;;3.76;62.73;101506.81;5093289;28;20036;-57
2023/03/02 04:31:07;;;;;;;16.67;6.85;;;;;;;3.76;62.48;101512.00;5096256;28;20516;-58
2023/03/02 04:33:32;;;;;;;28.88;7.18;;;;;;;3.79;62.45;101513.78;5108616;28;20028;-58
2023/03/02 04:35:58;;;;;;;19.15;6.75;;;;;;;3.81;62.30;101518.19;5098081;28;20043;-58
2023/03/02 04:38:28;;;;;;;19.40;6.65;;;;;;;3.79;62.49;101512.09;5104521;28;20059;-58
2023/03/02 04:40:56;;;;;;;19.40;7.53;;;;;;;3.93;62.46;101510.69;5112608;28;20065;-58
2023/03/02 04:43:22;;;;;;;30.80;7.22;;;;;;;3.95;62.52;101511.59;5097668;28;20024;-59
2023/03/02 04:45:48;;;;;;;37.30;7.93;;;;;;;3.81;62.90;101517.31;5100322;28;20059;-58
2023/03/02 04:48:14;;;;;;;35.25;7.35;;;;;;;3.81;62.61;101514.72;5106380;28;20062;-58
2023/03/02 04:50:40;;;;;;;29.63;8.50;;;;;;;3.46;63.92;101515.59;5108903;28;20100;-57
2023/03/02 04:53:06;;;;;;;29.27;7.47;;;;;;;3.52;63.94;101525.28;5099145;28;21760;-58
2023/03/02 04:55:31;;;;;;;12.43;6.20;;;;;;;3.61;63.54;101514.22;5093778;28;20069;-57
2023/03/02 04:57:57;;;;;;;20.35;6.47;;;;;;;3.61;63.59;101516.81;5093242;28;20092;-58
2023/03/02 05:00:24;;;;;;;26.92;7.43;;;;;;;3.63;63.50;101516.03;5100914;28;20111;-58
2023/03/02 05:02:49;;;;;;;14.32;6.43;;;;;;;3.68;63.57;101518.75;5083016;28;20365;-58
2023/03/02 05:05:22;;;;;;;24.08;6.95;;;;;;;3.83;63.24;101513.91;5113438;28;20042;-59
2023/03/02 05:07:48;;;;;;;12.30;6.13;;;;;;;3.99;63.00;101516.84;5108982;28;20026;-58
2023/03/02 05:10:15;;;;;;;18.92;6.97;;;;;;;4.24;62.24;101508.78;5096609;28;20237;-59
2023/03/02 05:12:57;;;;;;;10.63;5.85;;;;;;;4.40;61.82;101510.88;5106933;28;20031;-58
2023/03/02 05:15:24;;;;;;;28.23;6.85;;;;;;;4.43;61.51;101502.25;5114299;28;20035;-58
2023/03/02 05:17:50;;;;;;;26.05;6.90;;;;;;;4.35;61.60;101509.00;5098914;28;20044;-59
2023/03/02 05:20:16;;;;;;;14.18;6.72;;;;;;;4.25;61.83;101510.53;5098620;28;20029;-58
2023/03/02 05:22:41;;;;;;;32.75;8.75;;;;;;;4.15;62.25;101508.59;5096751;28;20036;-59
2023/03/02 05:25:07;;;;;;;25.42;9.20;;;;;;;4.11;62.25;101507.63;5089357;28;20036;-57
2023/03/02 05:27:33;;;;;;;26.75;7.85;;;;;;;3.92;62.77;101508.94;5088222;28;20035;-57
2023/03/02 05:29:58;;;;;;;17.50;8.48;;;;;;;3.99;62.77;101509.97;5104159;28;20036;-58
2023/03/02 05:32:24;;;;;;;18.70;7.22;;;;;;;3.82;63.07;101506.94;5100520;28;20145;-58
2023/03/02 05:34:49;;;;;;;22.25;7.82;;;;;;;3.88;63.03;101511.41;5100018;28;20031;-59
2023/03/02 05:37:14;;;;;;;20.40;10.20;;;;;;;3.76;63.54;101512.00;5105970;28;20088;-59
2023/03/02 05:39:40;;;;;;;15.18;9.93;;;;;;;3.87;63.00;101510.56;5104229;28;20056;-59
2023/03/02 05:42:05;;;;;;;15.32;8.88;;;;;;;3.93;62.91;101509.81;5099893;28;20440;-59
2023/03/02 05:44:31;;;;;;;14.32;7.78;;;;;;;3.70;63.56;101519.63;5100756;28;20036;-58
2023/03/02 05:46:56;;;;;;;16.17;7.28;;;;;;;3.79;63.24;101511.19;5098576;28;20039;-59
2023/03/02 05:49:22;;;;;;;14.63;7.43;;;;;;;4.06;62.48;101516.16;5098012;28;20032;-59
2023/03/02 05:51:47;;;;;;;12.40;6.40;;;;;;;4.14;62.17;101515.47;5094415;28;20029;-58
2023/03/02 05:54:14;;;;;;;11.23;7.47;;;;;;;3.95;62.61;101514.22;5095563;28;20043;-59
2023/03/02 05:56:40;;;;;;;18.45;8.00;;;;;;;3.85;62.68;101511.34;5109141;28;20035;-59
2023/03/02 05:59:06;;;;;;;28.55;7.53;;;;;;;3.59;63.53;101508.09;5102292;28;20043;-58
2023/03/02 06:01:32;;;;;;;17.13;7.35;;;;;;;3.87;62.75;101514.84;5096631;28;20036;-58
2023/03/02 06:03:57;;;;;;;14.20;6.88;;;;;;;3.73;63.22;101514.53;5109951;27;20035;-59
2023/03/02 06:06:23;;;;;;;11.82;7.22;;;;;;;3.70;63.08;101506.63;5095647;28;20457;-59
2023/03/02 06:08:48;;;;;;;14.57;7.60;;;;;;;3.79;62.79;101506.88;5101452;28;20084;-59
2023/03/02 06:11:14;;;;;;;12.43;6.72;;;;;;;3.93;62.64;101499.41;5115950;28;20031;-59
2023/03/02 06:13:39;;;;;;;14.98;7.20;;;;;;;4.02;62.56;101504.81;5115663;28;20077;-59
2023/03/02 06:16:05;;;;;;;10.40;6.07;;;;;;;3.98;62.58;101512.50;5115683;28;20024;-59
2023/03/02 06:18:32;;;;;;;11.02;6.53;;;;;;;4.32;61.54;101511.56;5115005;28;20032;-59
2023/03/02 06:20:58;;;;;;;15.55;8.05;;;;;;;4.17;61.89;101512.97;5096158;28;20040;-58
2023/03/02 06:23:24;;;;;;;14.20;6.70;;;;;;;4.15;61.85;101512.06;5092966;28;20426;-59
2023/03/02 06:25:50;;;;;;;20.73;7.82;;;;;;;4.13;61.94;101508.53;5093744;28;20509;-59
2023/03/02 06:28:18;;;;;;;16.30;7.72;;;;;;;4.51;61.16;101508.50;5095169;28;20074;-58
2023/03/02 06:30:44;;;;;;;12.80;7.28;;;;;;;4.55;60.79;101502.50;5077089;28;20395;-59
2023/03/02 06:33:10;;;;;;;18.65;7.93;;;;;;;4.86;60.36;101514.41;5093288;28;20085;-59
2023/03/02 06:35:35;;;;;;;18.88;7.93;;;;;;;4.81;60.22;101509.97;5094390;28;20028;-59
2023/03/02 06:38:01;;;;;;;14.43;6.90;;;;;;;4.86;60.27;101510.91;5093317;28;20404;-59
2023/03/02 06:40:26;;;;;;;20.95;7.35;;;;;;;4.95;60.16;101513.72;5094106;28;20061;-59
2023/03/02 06:42:52;;;;;;;17.30;8.73;;;;;;;4.92;60.12;101514.53;5094446;28;20106;-59
2023/03/02 06:45:17;;;;;;;16.90;8.63;;;;;;;5.02;60.02;101515.56;5093266;28;20066;-59
2023/03/02 06:47:43;;;;;;;16.83;8.63;;;;;;;4.88;60.15;101511.84;5089754;28;20044;-60
2023/03/02 06:50:09;;;;;;;14.70;8.10;;;;;;;4.89;60.08;101513.59;5092691;28;20118;-59
2023/03/02 06:52:35;;;;;;;12.18;6.78;;;;;;;4.90;60.13;101512.75;5092664;28;20097;-59
2023/03/02 06:55:01;;;;;;;16.27;8.32;;;;;;;5.00;60.12;101522.50;5093795;28;20471;-59
2023/03/02 06:57:32;;;;;;;13.77;7.40;;;;;;;5.05;59.93;101519.97;5094310;28;20024;-59
2023/03/02 07:00:08;;;;;;;14.95;7.55;;;;;;;4.65;60.43;101522.66;5094404;28;20036;-59
2023/03/02 07:02:34;;;;;;;14.20;7.18;;;;;;;4.80;60.45;101519.50;5077597;28;20123;-59
2023/03/02 07:04:59;;;;;;;14.27;7.72;;;;;;;5.02;60.27;101520.78;5093051;28;20493;-59
2023/03/02 07:07:24;;;;;;;14.35;7.63;;;;;;;5.23;59.67;101524.66;5094231;28;20028;-59
2023/03/02 07:09:50;;;;;;;16.73;8.38;;;;;;;5.28;59.60;101533.44;5093087;28;20032;-59
2023/03/02 07:12:15;;;;;;;15.00;7.93;;;;;;;5.21;59.78;101526.34;5094003;28;20036;-59
2023/03/02 07:14:41;;;;;;;13.48;7.65;;;;;;;5.61;59.41;101525.31;5094028;28;20046;-59
2023/03/02 07:17:07;;;;;;;14.57;7.75;;;;;;;5.45;59.21;101513.75;5094245;28;20055;-58
2023/03/02 07:19:33;;;;;;;14.13;7.78;;;;;;;5.73;58.77;101514.22;5092517;28;20058;-59
2023/03/02 07:21:58;;;;;;;15.50;7.57;;;;;;;5.99;58.37;101510.34;5092904;28;20039;-59
2023/03/02 07:24:24;;;;;;;12.73;7.95;;;;;;;5.87;58.21;101520.56;5093997;28;20369;-59
2023/03/02 07:26:49;;;;;;;13.60;8.18;;;;;;;5.67;58.63;101515.88;5094419;28;20078;-59
2023/03/02 07:29:15;;;;;;;15.20;8.55;;;;;;;5.64;58.60;101510.63;5093021;28;20118;-59
2023/03/02 07:31:43;;;;;;;13.45;7.90;;;;;;;5.75;58.38;101505.59;5093999;28;20035;-60
2023/03/02 07:34:08;;;;;;;13.68;7.63;;;;;;;5.75;58.51;101515.13;5092416;28;20032;-59
2023/03/02 07:36:34;;;;;;;14.00;7.93;;;;;;;5.89;58.44;101504.06;5093832;28;20110;-59
2023/03/02 07:39:02;;;;;;;13.27;6.72;;;;;;;6.22;57.63;101509.78;5092351;28;20118;-59
2023/03/02 07:41:27;;;;;;;16.55;8.55;;;;;;;6.27;57.60;101510.75;5093549;28;20032;-59
2023/03/02 07:43:53;;;;;;;14.25;8.15;;;;;;;6.39;57.36;101513.50;5076010;28;20044;-60
2023/03/02 07:46:18;;;;;;;12.43;7.28;;;;;;;6.25;57.29;101502.00;5093309;28;20068;-59
2023/03/02 07:48:43;;;;;;;13.10;7.53;;;;;;;6.40;56.97;101510.91;5093654;28;20036;-59
2023/03/02 07:51:09;;;;;;;13.02;7.45;;;;;;;6.48;56.84;101508.41;5092361;28;20032;-58
2023/03/02 07:53:34;;;;;;;13.40;7.72;;;;;;;6.39;57.02;101506.56;5093851;28;20085;-59
2023/03/02 07:56:05;;;;;;;14.43;8.70;;;;;;;6.49;56.76;101511.88;5093683;28;20044;-58
2023/03/02 07:58:30;;;;;;;13.35;7.43;;;;;;;6.36;56.93;101510.84;5093676;28;20032;-60
2023/03/02 08:00:56;;;;;;;15.23;8.38;;;;;;;6.31;57.15;101517.75;5093618;28;20087;-59
2023/03/02 08:03:21;;;;;;;13.32;7.85;;;;;;;6.47;56.85;101511.88;5092177;28;20032;-59
2023/03/02 08:05:47;;;;;;;15.60;8.38;;;;;;;6.30;57.44;101514.25;5092091;28;20055;-59
2023/03/02 08:08:12;;;;;;;12.57;7.60;;;;;;;5.85;58.18;101507.47;5093394;28;20025;-59
2023/03/02 08:10:38;;;;;;;12.73;7.45;;;;;;;6.22;57.37;101513.25;5092293;28;20032;-59
2023/03/02 08:13:04;;;;;;;13.15;8.00;;;;;;;6.46;56.99;101511.84;5093574;28;20044;-59
2023/03/02 08:15:29;;;;;;;11.63;7.32;;;;;;;6.58;56.52;101518.13;5093283;28;20040;-59
2023/03/02 08:17:54;;;;;;;12.30;7.82;;;;;;;6.66;56.60;101519.09;5093261;28;20032;-59
2023/03/02 08:20:20;;;;;;;12.70;8.23;;;;;;;6.87;56.13;101515.84;5093338;28;20044;-59
2023/03/02 08:22:45;;;;;;;13.90;7.93;;;;;;;7.06;55.48;101521.28;5093480;28;20111;-59
2023/03/02 08:25:11;;;;;;;12.73;7.97;;;;;;;7.05;55.35;101511.69;5093350;28;20467;-59
2023/03/02 08:27:39;;;;;;;13.82;8.75;;;;;;;7.01;55.58;101513.38;5091917;28;20032;-59
2023/03/02 08:30:05;;;;;;;16.83;10.32;;;;;;;7.05;55.72;101516.91;5093161;28;20036;-59
2023/03/02 08:32:32;;;;;;;15.98;9.05;;;;;;;6.99;55.93;101512.50;5093240;28;20054;-59
2023/03/02 08:34:58;;;;;;;15.23;9.18;;;;;;;7.70;54.50;101507.94;5093441;28;20135;-59
2023/03/02 08:37:23;;;;;;;11.10;7.03;;;;;;;7.48;54.84;101501.66;5093319;28;20550;-59
2023/03/02 08:39:49;;;;;;;13.05;8.07;;;;;;;7.34;54.65;101504.13;5091827;28;20052;-59
2023/03/02 08:42:15;;;;;;;12.00;7.70;;;;;;;6.99;55.24;101504.66;5093195;28;20044;-59
2023/03/02 08:44:40;;;;;;;12.65;8.10;;;;;;;6.87;55.51;101509.75;5093034;28;20047;-59
2023/03/02 08:47:06;;;;;;;14.98;9.73;;;;;;;7.07;55.22;101500.41;5091720;28;20028;-59
2023/03/02 08:49:31;;;;;;;14.35;8.95;;;;;;;6.94;55.57;101503.72;5093202;28;20028;-59
2023/03/02 08:51:58;;;;;;;12.05;8.48;;;;;;;6.66;56.14;101500.81;5092992;28;20095;-59
2023/03/02 08:54:24;;;;;;;10.45;7.63;;;;;;;6.38;56.54;101496.97;5093272;28;20032;-59
2023/03/02 08:56:49;;;;;;;11.35;7.32;;;;;;;6.62;56.43;101499.03;5092887;28;20055;-59
2023/03/02 08:59:15;;;;;;;11.43;6.65;;;;;;;6.59;56.41;101504.19;5094272;28;20032;-59
2023/03/02 09:01:41;;;;;;;10.38;7.10;;;;;;;6.62;56.42;101499.03;5096724;28;20078;-59
2023/03/02 09:04:08;;;;;;;12.50;7.28;;;;;;;6.71;56.18;101502.59;5096935;28;20105;-59
2023/03/02 09:06:37;;;;;;;12.88;6.82;;;;;;;6.71;56.42;101497.38;5096900;28;20142;-59
2023/03/02 09:09:03;;;;;;;11.20;6.53;;;;;;;6.84;56.11;101494.03;5096631;28;20028;-59
2023/03/02 09:11:29;;;;;;;12.60;7.13;;;;;;;6.84;56.13;101494.03;5091610;28;20101;-59
2023/03/02 09:13:55;;;;;;;10.68;7.28;;;;;;;7.13;55.58;101484.75;5076985;28;20131;-59
2023/03/02 09:16:22;;;;;;;10.32;6.32;;;;;;;7.08;55.54;101488.22;5095405;28;20314;-59
2023/03/02 09:18:48;;;;;;;12.75;8.07;;;;;;;6.95;55.88;101481.97;5096415;28;20028;-59
2023/03/02 09:21:15;;;;;;;14.15;8.20;;;;;;;7.06;55.62;101485.59;5096429;28;20103;-59
2023/03/02 09:23:40;;;;;;;12.73;7.45;;;;;;;7.08;55.41;101478.63;5096142;28;20032;-59
2023/03/02 09:26:06;;;;;;;13.77;7.90;;;;;;;7.11;55.44;101483.88;5095015;28;20042;-59
2023/03/02 09:28:32;;;;;;;9.65;6.22;;;;;;;7.09;55.52;101484.72;5094978;28;20517;-59
2023/03/02 09:31:00;;;;;;;8.95;6.15;;;;;;;7.13;55.53;101496.97;5094921;28;20039;-59
2023/03/02 09:33:26;;;;;;;9.82;6.70;;;;;;;7.24;55.29;101491.84;5096395;28;20040;-59
2023/03/02 09:35:51;;;;;;;10.45;6.10;;;;;;;7.41;54.91;101483.28;5096081;28;20115;-59
2023/03/02 09:38:17;;;;;;;9.52;6.10;;;;;;;7.29;55.03;101487.53;5077786;28;20048;-59
2023/03/02 09:40:52;;;;;;;10.50;6.75;;;;;;;6.96;55.85;101488.06;5094886;28;20494;-59
2023/03/02 09:43:39;;;;;;;9.23;6.00;;;;;;;7.16;55.41;101479.56;5094304;28;20028;-59
2023/03/02 09:46:19;;;;;;;8.93;6.30;;;;;;;6.86;55.61;101487.09;5095196;28;20378;-59
2023/03/02 09:48:53;;;;;;;9.07;6.05;;;;;;;7.03;55.61;101482.94;5094562;28;20059;-60
2023/03/02 09:51:27;;;;;;;8.40;5.93;;;;;;;6.93;56.14;101475.84;5095720;28;20087;-59
2023/03/02 09:53:58;;;;;;;8.82;6.10;;;;;;;6.90;56.42;101470.59;5095862;28;20466;-59
2023/03/02 09:56:23;;;;;;;9.43;6.22;;;;;;;7.18;55.59;101465.63;5095803;28;20510;-59
2023/03/02 09:59:37;;;;;;;9.70;6.90;;;;;;;7.41;55.12;101472.81;5094265;28;20126;-59
2023/03/02 10:02:14;;;;;;;9.20;5.90;;;;;;;7.76;54.61;101476.59;5095546;28;20344;-59
2023/03/02 10:04:45;;;;;;;8.00;5.05;;;;;;;7.50;54.53;101476.38;5095547;28;20459;-59
2023/03/02 10:07:16;;;;;;;10.25;6.47;;;;;;;7.39;55.05;101471.94;5095747;28;20528;-59
2023/03/02 10:09:42;;;;;;;8.45;5.85;;;;;;;7.53;54.63;101479.03;5095104;28;20490;-59
2023/03/02 10:12:42;;;;;;;8.57;6.43;;;;;;;7.81;53.92;101477.50;5095348;28;20039;-59
2023/03/02 10:15:32;;;;;;;7.63;5.55;;;;;;;8.09;53.39;101474.19;5095529;28;20024;-59
2023/03/02 10:18:32;;;;;;;6.50;4.47;;;;;;;8.40;52.92;101474.41;5095482;28;20153;-59
2023/03/02 10:21:12;;;;;;;7.68;5.18;;;;;;;8.04;52.87;101485.50;5071887;28;20200;-59
2023/03/02 10:23:45;;;;;;;7.03;4.35;;;;;;;8.41;52.69;101470.91;5095139;28;20115;-59
2023/03/02 10:26:36;;;;;;;8.05;4.95;;;;;;;8.58;52.43;101474.50;5095425;28;20039;-60
2023/03/02 10:29:34;;;;;;;7.70;4.95;;;;;;;8.89;51.97;101469.31;5095073;28;20032;-60
2023/03/02 10:32:24;;;;;;;5.40;3.65;;;;;;;8.74;52.13;101467.56;5093835;28;20130;-59
2023/03/02 10:34:52;;;;;;;7.18;3.78;;;;;;;8.77;51.99;101464.94;5094624;28;20111;-59
2023/03/02 10:37:24;;;;;;;8.13;5.50;;;;;;;8.97;51.31;101456.25;5094646;28;20541;-59
2023/03/02 10:39:52;;;;;;;12.90;7.32;;;;;;;9.18;51.25;101452.81;5094723;28;20497;-60
2023/03/02 10:42:24;;;;;;;20.35;8.60;;;;;;;9.07;51.46;101458.03;5094852;28;20024;-59
2023/03/02 10:44:54;;;;;;;9.70;6.30;;;;;;;8.85;51.79;101464.94;5093682;28;20028;-60
2023/03/02 10:47:23;;;;;;;9.77;5.97;;;;;;;9.03;51.36;101459.75;5093495;28;20111;-60
2023/03/02 10:49:49;;;;;;;7.38;4.70;;;;;;;9.31;51.42;101455.41;5094894;28;20465;-60
2023/03/02 10:52:26;;;;;;;6.40;4.35;;;;;;;9.50;50.94;101458.06;5094800;28;20040;-59
2023/03/02 10:55:05;;;;;;;7.40;4.40;;;;;;;9.40;50.49;101457.16;5094545;28;20089;-60
2023/03/02 10:57:39;;;;;;;8.70;4.47;;;;;;;9.43;50.91;101461.56;5093713;28;20134;-60
2023/03/02 11:00:22;;;;;;;11.10;5.57;;;;;;;9.42;50.90;101458.06;5093226;28;20119;-61
2023/03/02 11:02:53;;;;;;;7.30;4.63;;;;;;;9.14;51.72;101454.53;5095038;28;20413;-60
2023/03/02 11:05:27;;;;;;;8.88;4.88;;;;;;;9.36;51.03;101442.31;5093143;28;20036;-60
2023/03/02 11:07:54;;;;;;;7.22;4.13;;;;;;;9.55;51.07;101444.06;5088469;28;20032;-59
2023/03/02 11:10:27;;;;;;;6.35;4.32;;;;;;;9.57;50.55;101438.78;5082979;28;20039;-59
2023/03/02 11:12:53;;;;;;;7.85;4.95;;;;;;;9.82;50.63;101437.91;5112470;28;20027;-59
2023/03/02 11:15:47;;;;;;;7.15;4.47;;;;;;;9.88;49.71;101432.63;5114802;28;20459;-59
2023/03/02 11:18:12;;;;;;;;;;;;;;;9.98;50.12;101441.38;5113301;28;20045;-59
2023/03/02 11:20:42;;;;;;;5.90;4.28;;;;;;;9.93;50.22;101431.75;5114683;28;19908;-59
2023/03/02 11:23:26;;;;;;;6.65;4.57;;;;;;;10.07;49.80;101424.72;5113901;28;20027;-59
2023/03/02 11:25:56;;;;;;;8.07;4.90;;;;;;;10.22;49.21;101429.06;5114637;28;20055;-60
2023/03/02 11:28:38;;;;;;;7.13;4.35;;;;;;;10.28;49.18;101413.28;5113455;28;20566;-60
2023/03/02 11:31:11;;;;;;;5.75;3.53;;;;;;;10.36;48.66;101411.50;5114515;28;20034;-60
2023/03/02 11:33:52;;;;;;;;;;;;;;;10.11;48.23;101408.94;5113680;28;20047;-60